»·PEaware :: N805RJ KSJC-KFAT

N805RJ :: KSJC-KFAT

FLIGHT INFORMATION

Flight Status: Arrived
Operator: Privately registered:
United States
More flights under this callsign
Pilot: Rickie J. (22768)
Aircraft: CESSNA 172 SKYHAWK
(C172)
More flights by this aircraft type
Origin: KSJC Mineta San Jose Intl
United States
Destination: KFAT Fresno Yosemite Intl
United States
More flights between these airports :: More routes between these airports
Route: LICKE V485 V230 BLEAR
File this flight plan on PilotEdge
Remarks:
Altitude:
(Current/Filed)
7,500ft
Speed:
(Current/Filed)
120kts
Departed: 22-May-20 05:37 PM
Arrived: 22-May-20 06:40 PM
Distance/Time
Traveled:
111nm/1:03
Distance/Time
To Go:
Arrived

Flight Plot

Page will automatically refresh every two minutes.


Map Options




Map Legend


Flown Route
Filed Route
Departure Airport
Arrival Airport
Navaid (VOR, NDB)
Fix

Horizontal Profiles

Position Reports

Time Latitude Longitude Heading Altitude Ground
Speed
22-May-20 16:57 37.358686 -121.931958 129 66ft 0kts
22-May-20 16:58 37.358686 -121.931958 129 66ft 0kts
22-May-20 16:59 37.358686 -121.931958 129 66ft 0kts
22-May-20 17:00 37.358686 -121.931958 129 66ft 0kts
22-May-20 17:01 37.358685 -121.931958 129 66ft 0kts
22-May-20 17:02 37.358685 -121.931958 129 66ft 0kts
22-May-20 17:03 37.358685 -121.931958 129 66ft 0kts
22-May-20 17:04 37.358685 -121.931958 129 66ft 0kts
22-May-20 17:05 37.358685 -121.931958 129 66ft 0kts
22-May-20 17:06 37.358685 -121.931958 129 66ft 0kts
22-May-20 17:07 37.358685 -121.931958 129 66ft 0kts
22-May-20 17:08 37.358685 -121.931958 129 66ft 0kts
22-May-20 17:09 37.358685 -121.931958 129 66ft 0kts
22-May-20 17:10 37.358685 -121.931958 129 66ft 0kts
22-May-20 17:11 37.358685 -121.931958 129 66ft 0kts
22-May-20 17:12 37.358685 -121.931958 129 66ft 0kts
22-May-20 17:13 37.358685 -121.931958 129 66ft 0kts
22-May-20 17:14 37.358685 -121.931958 129 66ft 0kts
22-May-20 17:15 37.358685 -121.931958 129 66ft 0kts
22-May-20 17:16 37.358685 -121.931958 129 66ft 0kts
22-May-20 17:17 37.358685 -121.931958 129 66ft 0kts
22-May-20 17:18 37.358685 -121.931958 129 66ft 0kts
22-May-20 17:19 37.358683 -121.931954 128 66ft 0kts
22-May-20 17:20 37.358375 -121.931547 138 66ft 0kts
22-May-20 17:21 37.358375 -121.931547 138 66ft 0kts
22-May-20 17:23 37.358468 -121.930857 45 66ft 4kts
22-May-20 17:24 37.358572 -121.929787 139 66ft 4kts
22-May-20 17:25 37.357427 -121.928531 138 66ft 6kts
22-May-20 17:26 37.356032 -121.926998 139 66ft 7kts
22-May-20 17:27 37.354510 -121.925331 138 66ft 7kts
22-May-20 17:28 37.354805 -121.923505 72 66ft 4kts
22-May-20 17:29 37.353933 -121.922252 140 66ft 6kts
22-May-20 17:30 37.352596 -121.920793 139 66ft 7kts
22-May-20 17:31 37.352106 -121.919780 67 66ft 0kts
22-May-20 17:32 37.352106 -121.919781 67 66ft 0kts
22-May-20 17:33 37.352106 -121.919781 67 66ft 0kts
22-May-20 17:34 37.352106 -121.919781 67 66ft 0kts
22-May-20 17:35 37.352187 -121.919608 48 66ft 1kts
22-May-20 17:36 37.352885 -121.919165 336 66ft 4kts
22-May-20 17:37 37.362600 -121.930094 314 336ft 82kts
22-May-20 17:38 37.349935 -121.948598 191 1065ft 110kts
22-May-20 17:39 37.320457 -121.954550 191 1846ft 111kts
22-May-20 17:39 37.297430 -121.959242 191 2466ft 110kts
22-May-20 17:40 37.278692 -121.940575 104 3137ft 106kts
22-May-20 17:42 37.265039 -121.901711 132 3792ft 123kts
22-May-20 17:42 37.240408 -121.883726 148 4296ft 125kts
22-May-20 17:43 37.210930 -121.863322 147 4875ft 124kts
22-May-20 17:45 37.178870 -121.837944 138 5557ft 115kts
22-May-20 17:45 37.165087 -121.813571 101 6041ft 103kts
22-May-20 17:46 37.156230 -121.780182 101 6631ft 102kts
22-May-20 17:47 37.147588 -121.747532 100 7186ft 103kts
22-May-20 17:48 37.138421 -121.712777 101 7510ft 116kts
22-May-20 17:49 37.127701 -121.672310 102 7503ft 129kts
22-May-20 17:50 37.106321 -121.637589 131 7503ft 136kts
22-May-20 17:51 37.078731 -121.605432 132 7503ft 136kts
22-May-20 17:52 37.051404 -121.574287 137 7477ft 141kts
22-May-20 17:53 37.022642 -121.541646 137 7490ft 141kts
22-May-20 17:54 36.993747 -121.508728 137 7503ft 142kts
22-May-20 17:55 36.964574 -121.475578 137 7503ft 143kts
22-May-20 17:56 36.936193 -121.443382 137 7503ft 143kts
22-May-20 17:57 36.906104 -121.412052 141 7503ft 142kts
22-May-20 17:58 36.878490 -121.384706 141 7501ft 142kts
22-May-20 17:59 36.847801 -121.354403 141 7501ft 142kts
22-May-20 18:00 36.818876 -121.325872 142 7499ft 141kts
22-May-20 18:01 36.787857 -121.295318 142 7499ft 141kts
22-May-20 18:02 36.756898 -121.264854 142 7499ft 141kts
22-May-20 18:03 36.725937 -121.234421 142 7499ft 141kts
22-May-20 18:04 36.695896 -121.203006 115 7495ft 141kts
22-May-20 18:05 36.693530 -121.155621 83 7500ft 137kts
22-May-20 18:06 36.695748 -121.108284 81 7500ft 137kts
22-May-20 18:07 36.698577 -121.060970 80 7500ft 137kts
22-May-20 18:08 36.701451 -121.013426 80 7500ft 137kts
22-May-20 18:09 36.704298 -120.966163 80 7500ft 137kts
22-May-20 18:10 36.707159 -120.918799 80 7500ft 137kts
22-May-20 18:11 36.710020 -120.871176 80 7500ft 137kts
22-May-20 18:12 36.712858 -120.823627 80 7500ft 137kts
22-May-20 18:13 36.716286 -120.776868 73 7501ft 135kts
22-May-20 18:14 36.724219 -120.730632 72 7501ft 135kts
22-May-20 18:15 36.732727 -120.682857 72 7279ft 144kts
22-May-20 18:16 36.741585 -120.633197 72 6983ft 148kts
22-May-20 18:17 36.750573 -120.582691 72 6685ft 149kts
22-May-20 18:18 36.759643 -120.531615 73 6386ft 150kts
22-May-20 18:19 36.768659 -120.480699 73 6091ft 150kts
22-May-20 18:20 36.777690 -120.429567 73 5797ft 151kts
22-May-20 18:21 36.786756 -120.378098 73 5503ft 151kts
22-May-20 18:22 36.795634 -120.327558 74 5208ft 152kts
22-May-20 18:23 36.804667 -120.275824 74 4900ft 152kts
22-May-20 18:24 36.813758 -120.223792 75 4592ft 153kts
22-May-20 18:25 36.820214 -120.171259 92 4282ft 154kts
22-May-20 18:26 36.815405 -120.117723 96 3976ft 154kts
22-May-20 18:27 36.810272 -120.064174 96 3672ft 154kts
22-May-20 18:28 36.805120 -120.010685 96 3369ft 154kts
22-May-20 18:29 36.799972 -119.957468 96 3069ft 154kts
22-May-20 18:30 36.795113 -119.907765 97 2766ft 141kts
22-May-20 18:31 36.790511 -119.860659 97 2469ft 135kts
22-May-20 18:32 36.786694 -119.821636 97 2228ft 109kts
22-May-20 18:33 36.783011 -119.785297 105 1936ft 107kts
22-May-20 18:34 36.770591 -119.754468 122 1635ft 94kts
22-May-20 18:35 36.757138 -119.727900 131 1336ft 89kts
22-May-20 18:36 36.743677 -119.702587 102 1066ft 89kts
22-May-20 18:37 36.758196 -119.691233 321 866ft 68kts
22-May-20 18:38 36.769057 -119.707786 299 396ft 57kts
22-May-20 18:39 36.772750 -119.715668 224 338ft 0kts
22-May-20 18:40 36.772658 -119.715745 213 338ft 3kts
22-May-20 18:41 36.772478 -119.717583 301 338ft 10kts
22-May-20 18:42 36.774010 -119.720812 304 338ft 11kts
22-May-20 18:43 36.774293 -119.722333 305 338ft 6kts
22-May-20 18:44 36.775435 -119.724456 279 338ft 3kts
22-May-20 18:45 36.775079 -119.724571 127 338ft 0kts
22-May-20 18:46 36.775079 -119.724571 127 338ft 0kts
22-May-20 18:47 36.775079 -119.724571 127 338ft 0kts
22-May-20 18:48 36.775079 -119.724571 127 338ft 0kts
22-May-20 18:49 36.775079 -119.724571 127 338ft 0kts
22-May-20 18:50 36.775079 -119.724571 127 338ft 0kts

Navigation Log

Ident Type
Flight plan parsing failed, navigation log unavailable